Terminal Aerodrome Forecast
Issued by NWS Melbourne, FL

Home | Current Version | Previous Version | Text Only | Print | Product List | Glossary On
Versions: 1 2 3 4 5 6 7 8 9 10 11 12 13 14 15 16 17 18 19 20 21 22 23 24
404
FTUS42 KMLB 211733
TAFDAB
TAF
KDAB 211733Z 2118/2218 14009KT P6SM SCT040 OVC200
     FM220200 13008KT P6SM BKN040 OVC080
     FM221200 13007KT P6SM SCT020 OVC050
     FM221400 14010G16KT P6SM SCT020 OVC050
     FM221500 14013G19KT 5SM -SHRA BR BKN030 OVC050
     FM221700 14012G18KT 4SM SHRA BR OVC025=

USA.gov is the U.S. government's official web portal to all federal, state and local government web resources and services.